sensor_id;sensor_type;location;lat;lon;timestamp;P1;durP1;ratioP1;P2;durP2;ratioP2
66523;SDS011;53350;52.210;5.160;2024-01-27T00:01:55;16.40;;;3.45;;
66523;SDS011;53350;52.210;5.160;2024-01-27T00:04:21;22.27;;;3.65;;
66523;SDS011;53350;52.210;5.160;2024-01-27T00:06:48;23.00;;;3.42;;
66523;SDS011;53350;52.210;5.160;2024-01-27T00:09:14;20.02;;;3.22;;
66523;SDS011;53350;52.210;5.160;2024-01-27T00:11:42;18.10;;;3.17;;
66523;SDS011;53350;52.210;5.160;2024-01-27T00:14:08;15.70;;;3.72;;
66523;SDS011;53350;52.210;5.160;2024-01-27T00:16:35;12.02;;;3.22;;
66523;SDS011;53350;52.210;5.160;2024-01-27T00:19:01;22.90;;;3.10;;
66523;SDS011;53350;52.210;5.160;2024-01-27T00:21:27;16.83;;;3.08;;
66523;SDS011;53350;52.210;5.160;2024-01-27T00:23:54;17.95;;;2.95;;
66523;SDS011;53350;52.210;5.160;2024-01-27T00:26:25;25.60;;;3.47;;
66523;SDS011;53350;52.210;5.160;2024-01-27T00:28:53;18.13;;;3.58;;
66523;SDS011;53350;52.210;5.160;2024-01-27T00:31:20;14.85;;;2.97;;
66523;SDS011;53350;52.210;5.160;2024-01-27T00:33:46;15.07;;;3.25;;
66523;SDS011;53350;52.210;5.160;2024-01-27T00:36:13;20.80;;;3.35;;
66523;SDS011;53350;52.210;5.160;2024-01-27T00:38:39;17.55;;;4.25;;
66523;SDS011;53350;52.210;5.160;2024-01-27T00:41:06;18.10;;;3.50;;
66523;SDS011;53350;52.210;5.160;2024-01-27T00:43:34;17.58;;;3.47;;
66523;SDS011;53350;52.210;5.160;2024-01-27T00:46:02;16.48;;;3.08;;
66523;SDS011;53350;52.210;5.160;2024-01-27T00:48:28;17.83;;;2.78;;
66523;SDS011;53350;52.210;5.160;2024-01-27T00:50:55;19.30;;;3.05;;
66523;SDS011;53350;52.210;5.160;2024-01-27T00:53:21;22.15;;;3.42;;
66523;SDS011;53350;52.210;5.160;2024-01-27T00:55:48;15.50;;;2.50;;
66523;SDS011;53350;52.210;5.160;2024-01-27T00:58:15;17.55;;;3.08;;
66523;SDS011;53350;52.210;5.160;2024-01-27T01:00:42;16.23;;;2.97;;
66523;SDS011;53350;52.210;5.160;2024-01-27T01:03:09;19.02;;;2.97;;
66523;SDS011;53350;52.210;5.160;2024-01-27T01:05:36;16.02;;;3.50;;
66523;SDS011;53350;52.210;5.160;2024-01-27T01:08:02;15.85;;;3.25;;
66523;SDS011;53350;52.210;5.160;2024-01-27T01:10:31;16.65;;;2.63;;
66523;SDS011;53350;52.210;5.160;2024-01-27T01:12:58;19.55;;;3.08;;
66523;SDS011;53350;52.210;5.160;2024-01-27T01:15:24;13.85;;;2.53;;
66523;SDS011;53350;52.210;5.160;2024-01-27T01:17:51;23.85;;;3.40;;
66523;SDS011;53350;52.210;5.160;2024-01-27T01:20:18;18.65;;;3.63;;
66523;SDS011;53350;52.210;5.160;2024-01-27T01:22:45;14.50;;;3.17;;
66523;SDS011;53350;52.210;5.160;2024-01-27T01:25:11;19.05;;;3.53;;
66523;SDS011;53350;52.210;5.160;2024-01-27T01:27:38;17.35;;;3.25;;
66523;SDS011;53350;52.210;5.160;2024-01-27T01:30:04;14.27;;;2.72;;
66523;SDS011;53350;52.210;5.160;2024-01-27T01:32:31;12.50;;;3.00;;
66523;SDS011;53350;52.210;5.160;2024-01-27T01:34:58;13.88;;;2.95;;
66523;SDS011;53350;52.210;5.160;2024-01-27T01:37:26;18.73;;;3.75;;
66523;SDS011;53350;52.210;5.160;2024-01-27T01:39:52;14.45;;;2.75;;
66523;SDS011;53350;52.210;5.160;2024-01-27T01:42:19;19.75;;;3.13;;
66523;SDS011;53350;52.210;5.160;2024-01-27T01:44:48;15.77;;;3.60;;
66523;SDS011;53350;52.210;5.160;2024-01-27T01:47:14;16.17;;;2.92;;
66523;SDS011;53350;52.210;5.160;2024-01-27T01:49:41;19.80;;;3.28;;
66523;SDS011;53350;52.210;5.160;2024-01-27T01:52:07;20.38;;;2.92;;
66523;SDS011;53350;52.210;5.160;2024-01-27T01:54:35;22.15;;;3.35;;
66523;SDS011;53350;52.210;5.160;2024-01-27T01:57:03;20.08;;;2.80;;
66523;SDS011;53350;52.210;5.160;2024-01-27T01:59:30;18.67;;;3.25;;
66523;SDS011;53350;52.210;5.160;2024-01-27T02:01:56;25.98;;;4.38;;
66523;SDS011;53350;52.210;5.160;2024-01-27T02:04:23;16.73;;;2.88;;
66523;SDS011;53350;52.210;5.160;2024-01-27T02:06:49;18.65;;;3.15;;
66523;SDS011;53350;52.210;5.160;2024-01-27T02:09:16;15.80;;;2.50;;
66523;SDS011;53350;52.210;5.160;2024-01-27T02:11:43;16.05;;;2.60;;
66523;SDS011;53350;52.210;5.160;2024-01-27T02:14:10;16.15;;;2.72;;
66523;SDS011;53350;52.210;5.160;2024-01-27T02:16:37;16.38;;;2.55;;
66523;SDS011;53350;52.210;5.160;2024-01-27T02:19:04;22.80;;;4.18;;
66523;SDS011;53350;52.210;5.160;2024-01-27T02:21:30;13.93;;;3.00;;
66523;SDS011;53350;52.210;5.160;2024-01-27T02:23:56;16.75;;;2.60;;
66523;SDS011;53350;52.210;5.160;2024-01-27T02:26:25;16.25;;;2.90;;
66523;SDS011;53350;52.210;5.160;2024-01-27T02:28:52;17.55;;;3.00;;
66523;SDS011;53350;52.210;5.160;2024-01-27T02:31:18;17.30;;;3.25;;
66523;SDS011;53350;52.210;5.160;2024-01-27T02:33:44;15.80;;;3.50;;
66523;SDS011;53350;52.210;5.160;2024-01-27T02:36:11;14.90;;;2.80;;
66523;SDS011;53350;52.210;5.160;2024-01-27T02:38:37;23.90;;;3.83;;
66523;SDS011;53350;52.210;5.160;2024-01-27T02:41:04;14.55;;;2.80;;
66523;SDS011;53350;52.210;5.160;2024-01-27T02:43:32;18.45;;;2.78;;
66523;SDS011;53350;52.210;5.160;2024-01-27T02:45:58;15.48;;;2.47;;
66523;SDS011;53350;52.210;5.160;2024-01-27T02:48:25;18.45;;;2.63;;
66523;SDS011;53350;52.210;5.160;2024-01-27T02:50:51;15.05;;;2.53;;
66523;SDS011;53350;52.210;5.160;2024-01-27T02:53:18;16.30;;;2.70;;
66523;SDS011;53350;52.210;5.160;2024-01-27T02:55:44;16.65;;;3.03;;
66523;SDS011;53350;52.210;5.160;2024-01-27T02:58:11;17.85;;;2.60;;
66523;SDS011;53350;52.210;5.160;2024-01-27T03:00:39;16.38;;;2.75;;
66523;SDS011;53350;52.210;5.160;2024-01-27T03:03:05;20.52;;;4.13;;
66523;SDS011;53350;52.210;5.160;2024-01-27T03:05:32;16.90;;;2.50;;
66523;SDS011;53350;52.210;5.160;2024-01-27T03:07:59;18.70;;;2.72;;
66523;SDS011;53350;52.210;5.160;2024-01-27T03:10:25;17.35;;;2.45;;
66523;SDS011;53350;52.210;5.160;2024-01-27T03:12:52;16.63;;;3.13;;
66523;SDS011;53350;52.210;5.160;2024-01-27T03:15:18;16.50;;;3.22;;
66523;SDS011;53350;52.210;5.160;2024-01-27T03:17:46;15.18;;;3.42;;
66523;SDS011;53350;52.210;5.160;2024-01-27T03:20:13;19.73;;;2.92;;
66523;SDS011;53350;52.210;5.160;2024-01-27T03:22:39;23.30;;;4.60;;
66523;SDS011;53350;52.210;5.160;2024-01-27T03:25:07;19.58;;;3.03;;
66523;SDS011;53350;52.210;5.160;2024-01-27T03:27:34;24.27;;;2.83;;
66523;SDS011;53350;52.210;5.160;2024-01-27T03:30:01;20.85;;;2.70;;
66523;SDS011;53350;52.210;5.160;2024-01-27T03:32:28;15.85;;;2.55;;
66523;SDS011;53350;52.210;5.160;2024-01-27T03:34:58;12.15;;;2.58;;
66523;SDS011;53350;52.210;5.160;2024-01-27T03:37:24;21.85;;;3.20;;
66523;SDS011;53350;52.210;5.160;2024-01-27T03:39:51;18.08;;;2.42;;
66523;SDS011;53350;52.210;5.160;2024-01-27T03:42:17;21.90;;;2.70;;
66523;SDS011;53350;52.210;5.160;2024-01-27T03:44:43;15.13;;;2.47;;
66523;SDS011;53350;52.210;5.160;2024-01-27T03:47:10;13.18;;;2.88;;
66523;SDS011;53350;52.210;5.160;2024-01-27T03:49:37;13.85;;;2.65;;
66523;SDS011;53350;52.210;5.160;2024-01-27T03:52:05;15.57;;;2.83;;
66523;SDS011;53350;52.210;5.160;2024-01-27T03:54:31;22.38;;;2.92;;
66523;SDS011;53350;52.210;5.160;2024-01-27T03:56:58;15.75;;;2.95;;
66523;SDS011;53350;52.210;5.160;2024-01-27T03:59:24;13.93;;;2.95;;
66523;SDS011;53350;52.210;5.160;2024-01-27T04:01:51;15.73;;;2.40;;
66523;SDS011;53350;52.210;5.160;2024-01-27T04:04:17;16.83;;;2.40;;
66523;SDS011;53350;52.210;5.160;2024-01-27T04:06:43;18.92;;;2.55;;
66523;SDS011;53350;52.210;5.160;2024-01-27T04:09:11;15.02;;;2.38;;
66523;SDS011;53350;52.210;5.160;2024-01-27T04:11:38;17.38;;;2.50;;
66523;SDS011;53350;52.210;5.160;2024-01-27T04:14:05;19.08;;;2.88;;
66523;SDS011;53350;52.210;5.160;2024-01-27T04:16:32;13.68;;;2.20;;
66523;SDS011;53350;52.210;5.160;2024-01-27T04:18:58;13.93;;;2.60;;
66523;SDS011;53350;52.210;5.160;2024-01-27T04:21:25;21.88;;;3.17;;
66523;SDS011;53350;52.210;5.160;2024-01-27T04:23:51;12.05;;;2.72;;
66523;SDS011;53350;52.210;5.160;2024-01-27T04:26:19;17.80;;;2.72;;
66523;SDS011;53350;52.210;5.160;2024-01-27T04:28:45;18.88;;;2.70;;
66523;SDS011;53350;52.210;5.160;2024-01-27T04:31:12;16.83;;;2.83;;
66523;SDS011;53350;52.210;5.160;2024-01-27T04:33:38;16.00;;;2.65;;
66523;SDS011;53350;52.210;5.160;2024-01-27T04:36:05;17.27;;;3.05;;
66523;SDS011;53350;52.210;5.160;2024-01-27T04:41:00;14.40;;;2.95;;
66523;SDS011;53350;52.210;5.160;2024-01-27T04:43:28;14.85;;;2.88;;
66523;SDS011;53350;52.210;5.160;2024-01-27T04:45:55;20.55;;;3.33;;
66523;SDS011;53350;52.210;5.160;2024-01-27T04:48:21;18.23;;;3.63;;
66523;SDS011;53350;52.210;5.160;2024-01-27T04:50:48;13.30;;;3.42;;
66523;SDS011;53350;52.210;5.160;2024-01-27T04:53:14;15.60;;;3.58;;
66523;SDS011;53350;52.210;5.160;2024-01-27T04:55:41;14.98;;;3.60;;
66523;SDS011;53350;52.210;5.160;2024-01-27T04:58:07;14.82;;;3.47;;
66523;SDS011;53350;52.210;5.160;2024-01-27T05:00:35;29.17;;;5.05;;
66523;SDS011;53350;52.210;5.160;2024-01-27T05:03:01;18.48;;;4.03;;
66523;SDS011;53350;52.210;5.160;2024-01-27T05:05:32;19.13;;;4.13;;
66523;SDS011;53350;52.210;5.160;2024-01-27T05:07:58;21.08;;;5.45;;
66523;SDS011;53350;52.210;5.160;2024-01-27T05:10:25;26.13;;;5.22;;
66523;SDS011;53350;52.210;5.160;2024-01-27T05:12:51;19.45;;;5.20;;
66523;SDS011;53350;52.210;5.160;2024-01-27T05:15:18;24.73;;;5.72;;
66523;SDS011;53350;52.210;5.160;2024-01-27T05:17:46;17.38;;;5.25;;
66523;SDS011;53350;52.210;5.160;2024-01-27T05:20:12;23.45;;;6.85;;
66523;SDS011;53350;52.210;5.160;2024-01-27T05:22:39;22.33;;;5.90;;
66523;SDS011;53350;52.210;5.160;2024-01-27T05:25:06;14.43;;;5.55;;
66523;SDS011;53350;52.210;5.160;2024-01-27T05:27:32;24.30;;;6.00;;
66523;SDS011;53350;52.210;5.160;2024-01-27T05:29:59;14.43;;;5.40;;
66523;SDS011;53350;52.210;5.160;2024-01-27T05:32:25;20.52;;;6.50;;
66523;SDS011;53350;52.210;5.160;2024-01-27T05:34:53;18.92;;;6.22;;
66523;SDS011;53350;52.210;5.160;2024-01-27T05:37:19;19.05;;;6.65;;
66523;SDS011;53350;52.210;5.160;2024-01-27T05:39:46;20.13;;;6.25;;
66523;SDS011;53350;52.210;5.160;2024-01-27T05:42:12;22.08;;;6.45;;
66523;SDS011;53350;52.210;5.160;2024-01-27T05:44:39;17.88;;;5.57;;
66523;SDS011;53350;52.210;5.160;2024-01-27T05:47:06;19.83;;;5.60;;
66523;SDS011;53350;52.210;5.160;2024-01-27T05:49:35;19.25;;;6.15;;
66523;SDS011;53350;52.210;5.160;2024-01-27T05:52:03;19.60;;;6.55;;
66523;SDS011;53350;52.210;5.160;2024-01-27T05:54:30;18.58;;;6.22;;
66523;SDS011;53350;52.210;5.160;2024-01-27T05:56:57;24.92;;;6.50;;
66523;SDS011;53350;52.210;5.160;2024-01-27T05:59:24;19.58;;;6.05;;
66523;SDS011;53350;52.210;5.160;2024-01-27T06:01:50;15.48;;;6.00;;
66523;SDS011;53350;52.210;5.160;2024-01-27T06:04:16;19.08;;;5.85;;
66523;SDS011;53350;52.210;5.160;2024-01-27T06:06:43;20.88;;;6.30;;
66523;SDS011;53350;52.210;5.160;2024-01-27T06:09:11;13.52;;;5.63;;
66523;SDS011;53350;52.210;5.160;2024-01-27T06:11:38;19.77;;;6.70;;
66523;SDS011;53350;52.210;5.160;2024-01-27T06:14:05;17.27;;;5.82;;
66523;SDS011;53350;52.210;5.160;2024-01-27T06:16:32;16.13;;;5.63;;
66523;SDS011;53350;52.210;5.160;2024-01-27T06:19:00;19.83;;;6.13;;
66523;SDS011;53350;52.210;5.160;2024-01-27T06:21:26;24.27;;;6.00;;
66523;SDS011;53350;52.210;5.160;2024-01-27T06:23:53;18.88;;;5.50;;
66523;SDS011;53350;52.210;5.160;2024-01-27T06:26:21;15.68;;;6.00;;
66523;SDS011;53350;52.210;5.160;2024-01-27T06:28:47;18.70;;;6.20;;
66523;SDS011;53350;52.210;5.160;2024-01-27T06:31:15;22.42;;;6.80;;
66523;SDS011;53350;52.210;5.160;2024-01-27T06:33:42;25.23;;;6.28;;
66523;SDS011;53350;52.210;5.160;2024-01-27T06:36:09;19.67;;;6.68;;
66523;SDS011;53350;52.210;5.160;2024-01-27T06:38:37;22.70;;;6.40;;
66523;SDS011;53350;52.210;5.160;2024-01-27T06:41:03;21.00;;;6.88;;
66523;SDS011;53350;52.210;5.160;2024-01-27T06:43:31;19.90;;;6.70;;
66523;SDS011;53350;52.210;5.160;2024-01-27T06:45:57;22.60;;;6.35;;
66523;SDS011;53350;52.210;5.160;2024-01-27T06:48:24;16.40;;;5.82;;
66523;SDS011;53350;52.210;5.160;2024-01-27T06:50:51;21.05;;;6.38;;
66523;SDS011;53350;52.210;5.160;2024-01-27T06:53:18;18.63;;;6.20;;
66523;SDS011;53350;52.210;5.160;2024-01-27T06:55:44;24.83;;;6.43;;
66523;SDS011;53350;52.210;5.160;2024-01-27T06:58:11;15.60;;;6.35;;
66523;SDS011;53350;52.210;5.160;2024-01-27T07:00:39;17.73;;;6.30;;
66523;SDS011;53350;52.210;5.160;2024-01-27T07:03:05;19.60;;;6.60;;
66523;SDS011;53350;52.210;5.160;2024-01-27T07:05:32;20.42;;;6.70;;
66523;SDS011;53350;52.210;5.160;2024-01-27T07:08:03;20.88;;;6.00;;
66523;SDS011;53350;52.210;5.160;2024-01-27T07:10:31;22.00;;;6.47;;
66523;SDS011;53350;52.210;5.160;2024-01-27T07:12:57;17.70;;;6.90;;
66523;SDS011;53350;52.210;5.160;2024-01-27T07:15:24;21.63;;;6.20;;
66523;SDS011;53350;52.210;5.160;2024-01-27T07:17:52;17.60;;;6.63;;
66523;SDS011;53350;52.210;5.160;2024-01-27T07:20:18;24.65;;;6.95;;
66523;SDS011;53350;52.210;5.160;2024-01-27T07:22:45;18.63;;;6.25;;
66523;SDS011;53350;52.210;5.160;2024-01-27T07:25:12;19.48;;;6.63;;
66523;SDS011;53350;52.210;5.160;2024-01-27T07:27:39;19.80;;;6.70;;
66523;SDS011;53350;52.210;5.160;2024-01-27T07:30:06;25.35;;;6.97;;
66523;SDS011;53350;52.210;5.160;2024-01-27T07:32:34;17.23;;;6.30;;
66523;SDS011;53350;52.210;5.160;2024-01-27T07:35:02;15.65;;;6.32;;
66523;SDS011;53350;52.210;5.160;2024-01-27T07:37:30;15.85;;;6.82;;
66523;SDS011;53350;52.210;5.160;2024-01-27T07:39:57;20.58;;;6.50;;
66523;SDS011;53350;52.210;5.160;2024-01-27T07:42:23;15.30;;;6.82;;
66523;SDS011;53350;52.210;5.160;2024-01-27T07:44:50;23.50;;;6.25;;
66523;SDS011;53350;52.210;5.160;2024-01-27T07:47:16;26.40;;;8.50;;
66523;SDS011;53350;52.210;5.160;2024-01-27T07:49:42;29.92;;;8.35;;
66523;SDS011;53350;52.210;5.160;2024-01-27T07:52:11;20.73;;;7.20;;
66523;SDS011;53350;52.210;5.160;2024-01-27T07:54:37;24.42;;;7.03;;
66523;SDS011;53350;52.210;5.160;2024-01-27T07:57:05;19.17;;;6.40;;
66523;SDS011;53350;52.210;5.160;2024-01-27T07:59:31;20.17;;;6.97;;
66523;SDS011;53350;52.210;5.160;2024-01-27T08:01:58;23.83;;;7.03;;
66523;SDS011;53350;52.210;5.160;2024-01-27T08:04:25;25.92;;;6.75;;
66523;SDS011;53350;52.210;5.160;2024-01-27T08:06:52;18.42;;;6.20;;
66523;SDS011;53350;52.210;5.160;2024-01-27T08:09:21;18.23;;;6.30;;
66523;SDS011;53350;52.210;5.160;2024-01-27T08:11:47;24.27;;;7.43;;
66523;SDS011;53350;52.210;5.160;2024-01-27T08:14:16;20.50;;;7.10;;
66523;SDS011;53350;52.210;5.160;2024-01-27T08:16:43;21.95;;;7.30;;
66523;SDS011;53350;52.210;5.160;2024-01-27T08:19:09;16.77;;;6.72;;
66523;SDS011;53350;52.210;5.160;2024-01-27T08:21:36;20.92;;;6.85;;
66523;SDS011;53350;52.210;5.160;2024-01-27T08:24:02;20.63;;;7.05;;
66523;SDS011;53350;52.210;5.160;2024-01-27T08:26:30;25.02;;;7.53;;
66523;SDS011;53350;52.210;5.160;2024-01-27T08:28:57;20.85;;;8.75;;
66523;SDS011;53350;52.210;5.160;2024-01-27T08:31:23;18.42;;;7.20;;
66523;SDS011;53350;52.210;5.160;2024-01-27T08:33:50;16.65;;;6.40;;
66523;SDS011;53350;52.210;5.160;2024-01-27T08:36:17;18.55;;;7.22;;
66523;SDS011;53350;52.210;5.160;2024-01-27T08:38:43;25.85;;;7.47;;
66523;SDS011;53350;52.210;5.160;2024-01-27T08:41:10;17.15;;;7.10;;
66523;SDS011;53350;52.210;5.160;2024-01-27T08:43:37;15.35;;;6.80;;
66523;SDS011;53350;52.210;5.160;2024-01-27T08:46:04;25.98;;;7.90;;
66523;SDS011;53350;52.210;5.160;2024-01-27T08:48:32;19.42;;;7.75;;
66523;SDS011;53350;52.210;5.160;2024-01-27T08:50:59;20.48;;;7.40;;
66523;SDS011;53350;52.210;5.160;2024-01-27T08:53:26;21.40;;;6.88;;
66523;SDS011;53350;52.210;5.160;2024-01-27T08:55:53;24.42;;;7.45;;
66523;SDS011;53350;52.210;5.160;2024-01-27T08:58:19;22.08;;;7.35;;
66523;SDS011;53350;52.210;5.160;2024-01-27T09:00:47;21.75;;;7.75;;
66523;SDS011;53350;52.210;5.160;2024-01-27T09:03:13;19.75;;;7.60;;
66523;SDS011;53350;52.210;5.160;2024-01-27T09:05:40;20.60;;;7.68;;
66523;SDS011;53350;52.210;5.160;2024-01-27T09:08:09;19.52;;;7.95;;
66523;SDS011;53350;52.210;5.160;2024-01-27T09:10:35;20.63;;;7.72;;
66523;SDS011;53350;52.210;5.160;2024-01-27T09:13:01;19.60;;;6.78;;
66523;SDS011;53350;52.210;5.160;2024-01-27T09:15:28;25.95;;;8.32;;
66523;SDS011;53350;52.210;5.160;2024-01-27T09:17:56;21.60;;;7.80;;
66523;SDS011;53350;52.210;5.160;2024-01-27T09:20:22;18.00;;;7.40;;
66523;SDS011;53350;52.210;5.160;2024-01-27T09:22:49;21.70;;;9.23;;
66523;SDS011;53350;52.210;5.160;2024-01-27T09:25:16;20.08;;;7.97;;
66523;SDS011;53350;52.210;5.160;2024-01-27T09:27:43;19.15;;;7.03;;
66523;SDS011;53350;52.210;5.160;2024-01-27T09:30:10;23.23;;;7.43;;
66523;SDS011;53350;52.210;5.160;2024-01-27T09:32:37;24.15;;;7.90;;
66523;SDS011;53350;52.210;5.160;2024-01-27T09:35:05;24.38;;;7.20;;
66523;SDS011;53350;52.210;5.160;2024-01-27T09:37:31;22.38;;;7.20;;
66523;SDS011;53350;52.210;5.160;2024-01-27T09:39:58;20.48;;;7.32;;
66523;SDS011;53350;52.210;5.160;2024-01-27T09:42:25;19.15;;;6.53;;
66523;SDS011;53350;52.210;5.160;2024-01-27T09:44:53;20.23;;;6.80;;
66523;SDS011;53350;52.210;5.160;2024-01-27T09:47:22;21.27;;;7.55;;
66523;SDS011;53350;52.210;5.160;2024-01-27T09:49:48;20.13;;;6.93;;
66523;SDS011;53350;52.210;5.160;2024-01-27T09:52:17;24.38;;;7.38;;
66523;SDS011;53350;52.210;5.160;2024-01-27T09:54:44;21.83;;;7.07;;
66523;SDS011;53350;52.210;5.160;2024-01-27T09:57:10;26.27;;;7.22;;
66523;SDS011;53350;52.210;5.160;2024-01-27T09:59:38;17.13;;;6.40;;
66523;SDS011;53350;52.210;5.160;2024-01-27T10:02:09;23.33;;;7.28;;
66523;SDS011;53350;52.210;5.160;2024-01-27T10:04:37;19.10;;;6.72;;
66523;SDS011;53350;52.210;5.160;2024-01-27T10:07:04;23.38;;;6.60;;
66523;SDS011;53350;52.210;5.160;2024-01-27T10:09:32;20.08;;;6.80;;
66523;SDS011;53350;52.210;5.160;2024-01-27T10:11:59;21.25;;;6.88;;
66523;SDS011;53350;52.210;5.160;2024-01-27T10:17:03;17.55;;;6.07;;
66523;SDS011;53350;52.210;5.160;2024-01-27T10:19:30;17.40;;;5.47;;
66523;SDS011;53350;52.210;5.160;2024-01-27T10:21:59;20.15;;;5.68;;
66523;SDS011;53350;52.210;5.160;2024-01-27T10:24:27;17.77;;;6.00;;
66523;SDS011;53350;52.210;5.160;2024-01-27T10:26:59;16.90;;;5.63;;
66523;SDS011;53350;52.210;5.160;2024-01-27T10:29:27;17.25;;;6.60;;
66523;SDS011;53350;52.210;5.160;2024-01-27T10:31:54;18.73;;;6.50;;
66523;SDS011;53350;52.210;5.160;2024-01-27T10:34:20;20.85;;;6.30;;
66523;SDS011;53350;52.210;5.160;2024-01-27T10:36:47;23.42;;;7.05;;
66523;SDS011;53350;52.210;5.160;2024-01-27T10:39:14;23.83;;;6.15;;
66523;SDS011;53350;52.210;5.160;2024-01-27T10:41:45;22.13;;;6.57;;
66523;SDS011;53350;52.210;5.160;2024-01-27T10:44:14;22.45;;;5.97;;
66523;SDS011;53350;52.210;5.160;2024-01-27T10:46:43;22.13;;;6.22;;
66523;SDS011;53350;52.210;5.160;2024-01-27T10:49:12;22.63;;;5.90;;
66523;SDS011;53350;52.210;5.160;2024-01-27T10:54:10;27.42;;;5.72;;
66523;SDS011;53350;52.210;5.160;2024-01-27T10:56:40;24.40;;;6.70;;
66523;SDS011;53350;52.210;5.160;2024-01-27T10:59:08;14.60;;;6.00;;
66523;SDS011;53350;52.210;5.160;2024-01-27T11:01:37;25.52;;;6.00;;
66523;SDS011;53350;52.210;5.160;2024-01-27T11:04:04;20.95;;;6.40;;
66523;SDS011;53350;52.210;5.160;2024-01-27T11:06:32;17.77;;;5.75;;
66523;SDS011;53350;52.210;5.160;2024-01-27T11:09:00;20.00;;;5.60;;
66523;SDS011;53350;52.210;5.160;2024-01-27T11:11:28;19.73;;;6.38;;
66523;SDS011;53350;52.210;5.160;2024-01-27T11:13:55;19.67;;;5.97;;
66523;SDS011;53350;52.210;5.160;2024-01-27T11:16:22;18.55;;;5.97;;
66523;SDS011;53350;52.210;5.160;2024-01-27T11:18:50;19.00;;;5.85;;
66523;SDS011;53350;52.210;5.160;2024-01-27T11:21:17;19.77;;;6.38;;
66523;SDS011;53350;52.210;5.160;2024-01-27T11:23:45;18.30;;;5.38;;
66523;SDS011;53350;52.210;5.160;2024-01-27T11:26:17;23.05;;;6.38;;
66523;SDS011;53350;52.210;5.160;2024-01-27T11:28:45;17.70;;;6.10;;
66523;SDS011;53350;52.210;5.160;2024-01-27T11:31:12;18.35;;;6.05;;
66523;SDS011;53350;52.210;5.160;2024-01-27T11:33:42;18.95;;;5.68;;
66523;SDS011;53350;52.210;5.160;2024-01-27T11:36:18;19.45;;;5.55;;
66523;SDS011;53350;52.210;5.160;2024-01-27T11:38:47;19.05;;;5.70;;
66523;SDS011;53350;52.210;5.160;2024-01-27T11:41:22;20.40;;;6.47;;
66523;SDS011;53350;52.210;5.160;2024-01-27T11:43:51;19.10;;;4.80;;
66523;SDS011;53350;52.210;5.160;2024-01-27T11:46:18;19.42;;;5.05;;
66523;SDS011;53350;52.210;5.160;2024-01-27T11:48:45;14.70;;;5.00;;
66523;SDS011;53350;52.210;5.160;2024-01-27T11:51:13;18.52;;;5.47;;
66523;SDS011;53350;52.210;5.160;2024-01-27T11:53:40;16.60;;;4.53;;
66523;SDS011;53350;52.210;5.160;2024-01-27T11:56:06;21.85;;;5.05;;
66523;SDS011;53350;52.210;5.160;2024-01-27T11:58:33;17.00;;;4.28;;
66523;SDS011;53350;52.210;5.160;2024-01-27T12:00:59;16.58;;;4.85;;
66523;SDS011;53350;52.210;5.160;2024-01-27T12:03:26;20.85;;;5.50;;
66523;SDS011;53350;52.210;5.160;2024-01-27T12:05:54;17.42;;;4.22;;
66523;SDS011;53350;52.210;5.160;2024-01-27T12:08:22;18.83;;;4.15;;
66523;SDS011;53350;52.210;5.160;2024-01-27T12:10:48;17.38;;;4.30;;
66523;SDS011;53350;52.210;5.160;2024-01-27T12:13:15;18.23;;;4.90;;
66523;SDS011;53350;52.210;5.160;2024-01-27T12:15:42;18.52;;;4.15;;
66523;SDS011;53350;52.210;5.160;2024-01-27T12:18:09;16.40;;;4.38;;
66523;SDS011;53350;52.210;5.160;2024-01-27T12:20:35;19.95;;;4.18;;
66523;SDS011;53350;52.210;5.160;2024-01-27T12:23:02;18.00;;;3.60;;
66523;SDS011;53350;52.210;5.160;2024-01-27T12:25:31;14.63;;;3.92;;
66523;SDS011;53350;52.210;5.160;2024-01-27T12:28:01;14.88;;;3.80;;
66523;SDS011;53350;52.210;5.160;2024-01-27T12:30:28;17.95;;;3.75;;
66523;SDS011;53350;52.210;5.160;2024-01-27T12:32:55;21.10;;;4.00;;
66523;SDS011;53350;52.210;5.160;2024-01-27T12:35:21;19.33;;;4.68;;
66523;SDS011;53350;52.210;5.160;2024-01-27T12:37:49;18.90;;;3.92;;
66523;SDS011;53350;52.210;5.160;2024-01-27T12:40:19;16.75;;;3.58;;
66523;SDS011;53350;52.210;5.160;2024-01-27T12:42:47;22.88;;;4.70;;
66523;SDS011;53350;52.210;5.160;2024-01-27T12:45:14;18.75;;;4.85;;
66523;SDS011;53350;52.210;5.160;2024-01-27T12:47:40;20.73;;;4.22;;
66523;SDS011;53350;52.210;5.160;2024-01-27T12:50:08;16.20;;;3.40;;
66523;SDS011;53350;52.210;5.160;2024-01-27T12:52:35;20.65;;;4.15;;
66523;SDS011;53350;52.210;5.160;2024-01-27T12:55:02;14.50;;;3.78;;
66523;SDS011;53350;52.210;5.160;2024-01-27T12:57:28;18.70;;;3.97;;
66523;SDS011;53350;52.210;5.160;2024-01-27T12:59:56;15.27;;;3.70;;
66523;SDS011;53350;52.210;5.160;2024-01-27T13:02:23;16.02;;;4.00;;
66523;SDS011;53350;52.210;5.160;2024-01-27T13:04:49;18.10;;;3.78;;
66523;SDS011;53350;52.210;5.160;2024-01-27T13:07:16;16.98;;;4.22;;
66523;SDS011;53350;52.210;5.160;2024-01-27T13:09:42;14.68;;;3.20;;
66523;SDS011;53350;52.210;5.160;2024-01-27T13:12:08;15.57;;;3.70;;
66523;SDS011;53350;52.210;5.160;2024-01-27T13:14:35;16.65;;;3.40;;
66523;SDS011;53350;52.210;5.160;2024-01-27T13:17:03;15.15;;;3.75;;
66523;SDS011;53350;52.210;5.160;2024-01-27T13:19:30;17.20;;;3.63;;
66523;SDS011;53350;52.210;5.160;2024-01-27T13:21:56;15.93;;;3.80;;
66523;SDS011;53350;52.210;5.160;2024-01-27T13:24:23;16.50;;;3.78;;
66523;SDS011;53350;52.210;5.160;2024-01-27T13:26:50;20.55;;;4.55;;
66523;SDS011;53350;52.210;5.160;2024-01-27T13:29:16;18.10;;;4.18;;
66523;SDS011;53350;52.210;5.160;2024-01-27T13:31:43;18.73;;;3.85;;
66523;SDS011;53350;52.210;5.160;2024-01-27T13:34:11;16.52;;;4.90;;
66523;SDS011;53350;52.210;5.160;2024-01-27T13:36:37;19.67;;;4.22;;
66523;SDS011;53350;52.210;5.160;2024-01-27T13:39:04;18.42;;;3.85;;
66523;SDS011;53350;52.210;5.160;2024-01-27T13:41:30;18.27;;;4.68;;
66523;SDS011;53350;52.210;5.160;2024-01-27T13:43:57;19.35;;;4.30;;
66523;SDS011;53350;52.210;5.160;2024-01-27T13:46:23;18.50;;;3.63;;
66523;SDS011;53350;52.210;5.160;2024-01-27T13:48:49;16.42;;;4.10;;
66523;SDS011;53350;52.210;5.160;2024-01-27T13:51:18;18.50;;;4.13;;
66523;SDS011;53350;52.210;5.160;2024-01-27T13:53:44;25.60;;;4.50;;
66523;SDS011;53350;52.210;5.160;2024-01-27T13:56:11;22.95;;;4.30;;
66523;SDS011;53350;52.210;5.160;2024-01-27T13:58:37;14.70;;;3.72;;
66523;SDS011;53350;52.210;5.160;2024-01-27T14:01:04;19.30;;;4.75;;
66523;SDS011;53350;52.210;5.160;2024-01-27T14:03:30;16.90;;;3.58;;
66523;SDS011;53350;52.210;5.160;2024-01-27T14:05:56;16.88;;;4.25;;
66523;SDS011;53350;52.210;5.160;2024-01-27T14:08:24;19.70;;;5.20;;
66523;SDS011;53350;52.210;5.160;2024-01-27T14:10:51;19.20;;;3.72;;
66523;SDS011;53350;52.210;5.160;2024-01-27T14:13:18;20.08;;;4.47;;
66523;SDS011;53350;52.210;5.160;2024-01-27T14:15:44;20.33;;;4.45;;
66523;SDS011;53350;52.210;5.160;2024-01-27T14:18:10;19.45;;;4.90;;
66523;SDS011;53350;52.210;5.160;2024-01-27T14:20:45;15.98;;;4.55;;
66523;SDS011;53350;52.210;5.160;2024-01-27T14:23:11;18.95;;;3.90;;
66523;SDS011;53350;52.210;5.160;2024-01-27T14:25:39;22.98;;;4.80;;
66523;SDS011;53350;52.210;5.160;2024-01-27T14:28:06;21.65;;;5.00;;
66523;SDS011;53350;52.210;5.160;2024-01-27T14:30:34;21.00;;;4.80;;
66523;SDS011;53350;52.210;5.160;2024-01-27T14:33:01;24.63;;;4.13;;
66523;SDS011;53350;52.210;5.160;2024-01-27T14:35:27;22.80;;;4.38;;
66523;SDS011;53350;52.210;5.160;2024-01-27T14:37:54;19.10;;;4.15;;
66523;SDS011;53350;52.210;5.160;2024-01-27T14:40:22;21.50;;;4.43;;